Time;durP1;ratioP1;P1;durP2;ratioP2;P2;SDS_P1;SDS_P2;PMS_P1;PMS_P2;Temp;Humidity;BMP_temperature;BMP_pressure;BME280_temperature;BME280_humidity;BME280_pressure;Samples;Min_cycle;Max_cycle;Signal;HPM_P1;HPM_P2
2022/04/04 00:00:45;;;;;;;;;;;-1.60;96.60;212.10;228463.00;;;;3;75024806;78027824;-58
2022/04/04 00:05:04;;;;;;;;;;;-1.70;96.70;212.10;228463.00;;;;3;75024457;82529906;-61
2022/04/04 00:09:29;;;;;;;;;;;-1.70;96.70;212.10;228463.00;;;;3;82525713;82527041;-60
2022/04/04 00:13:56;;;;;;;;;;;-1.70;97.40;212.10;228463.00;;;;3;78027345;82527543;-60
2022/04/04 00:18:16;;;;;;;;;;;-1.70;97.30;212.10;228463.00;;;;3;75026146;78026214;-60
2022/04/04 00:22:37;;;;;;;;;;;-1.80;97.60;212.10;228463.00;;;;3;75024465;84029867;-61
2022/04/04 00:27:01;;;;;;;;;;;-1.90;97.70;212.10;228463.00;;;;3;82527767;82529602;-58
2022/04/04 00:31:28;;;;;;;;;;;-2.00;97.60;212.10;228463.00;;;;3;78027008;82527770;-58
2022/04/04 00:35:48;;;;;;;;;;;-2.00;97.60;212.10;228463.00;;;;3;75026031;78026867;-59
2022/04/04 00:40:08;;;;;;;;;;;-2.00;97.40;212.10;228463.00;;;;3;75024175;82527917;-60
2022/04/04 00:44:32;;;;;;;;;;;-2.10;97.40;212.10;228463.00;;;;3;82526043;82526703;-60
2022/04/04 00:48:58;;;;;;;;;;;-2.10;97.60;212.10;228463.00;;;;3;78027304;82526877;-60
2022/04/04 00:53:18;;;;;;;;;;;-2.10;97.10;212.10;228463.00;;;;3;75024956;78026322;-60
2022/04/04 00:57:38;;;;;;;;;;;-2.20;97.40;212.10;228463.00;;;;3;75024898;82526806;-60
2022/04/04 01:02:06;;;;;;;;;;;-2.30;97.70;212.10;228463.00;;;;3;84028746;84029296;-60
2022/04/04 01:06:33;;;;;;;;;;;-2.30;97.50;212.10;228463.00;;;;3;78027938;82526864;-61
2022/04/04 01:10:52;;;;;;;;;;;-2.40;98.80;212.10;228463.00;;;;3;75026404;78028060;-61
2022/04/04 01:15:11;;;;;;;;;;;-2.50;99.10;212.10;228463.00;;;;3;75027111;82528025;-62
2022/04/04 01:19:35;;;;;;;;;;;-2.60;99.70;212.10;228463.00;;;;3;82527372;82527916;-61
2022/04/04 01:24:03;;;;;;;;;;;-2.60;99.90;212.10;228463.00;;;;3;78029347;82527341;-60
2022/04/04 01:28:23;;;;;;;;;;;-2.70;99.90;212.10;228463.00;;;;3;75027707;78028032;-62
2022/04/04 01:32:43;;;;;;;;;;;-2.70;99.90;212.10;228463.00;;;;3;75026136;82527201;-60
2022/04/04 01:37:08;;;;;;;;;;;-2.70;99.60;212.10;228463.00;;;;3;82527133;82527979;-59
2022/04/04 01:41:34;;;;;;;;;;;-2.80;99.50;212.10;228463.00;;;;3;78026580;82528725;-60
2022/04/04 01:50:52;;;;;;;;;;;-2.80;99.30;212.10;228463.00;;;;3;75025723;84028410;-59
2022/04/04 01:55:16;;;;;;;;;;;-2.70;98.60;212.10;228463.00;;;;3;82527075;82527717;-59
2022/04/04 01:59:43;;;;;;;;;;;-2.70;98.40;212.10;228463.00;;;;3;78026087;82528044;-59
2022/04/04 02:04:02;;;;;;;;;;;-2.70;98.10;212.10;228463.00;;;;3;75025933;78027000;-59
2022/04/04 02:08:21;;;;;;;;;;;-2.70;97.30;212.10;228463.00;;;;3;75025933;82527814;-61
2022/04/04 02:12:45;;;;;;;;;;;-2.50;96.50;212.10;228463.00;;;;3;82528217;82529191;-61
2022/04/04 02:17:30;;;;;;;;;;;-2.50;96.50;212.10;228463.00;;;;3;78027513;82527784;-59
2022/04/04 02:21:50;;;;;;;;;;;-2.40;96.10;212.10;228463.00;;;;3;75027161;78027106;-59
2022/04/04 02:26:09;;;;;;;;;;;-2.40;96.20;212.10;228463.00;;;;3;75025185;82527392;-61
2022/04/04 02:30:55;;;;;;;;;;;-2.40;95.90;212.10;228463.00;;;;3;84027130;84028623;-58
2022/04/04 02:35:22;;;;;;;;;;;-2.30;96.00;212.10;228463.00;;;;3;78027360;82528175;-61
2022/04/04 02:40:07;;;;;;;;;;;-2.40;96.20;212.10;228463.00;;;;3;75026502;78028184;-61
2022/04/04 02:44:26;;;;;;;;;;;-2.40;96.00;212.10;228463.00;;;;3;75025904;82528201;-61
2022/04/04 02:48:50;;;;;;;;;;;-2.40;96.40;212.10;228463.00;;;;3;82525629;82528897;-61
2022/04/04 02:53:17;;;;;;;;;;;-2.50;95.90;212.10;228463.00;;;;3;78027050;82529574;-57
2022/04/04 02:57:36;;;;;;;;;;;-2.50;96.00;212.10;228463.00;;;;3;75027291;78027649;-58
2022/04/04 03:02:14;;;;;;;;;;;-2.40;96.30;212.10;228463.00;;;;3;75025830;82526977;-61
2022/04/04 03:06:56;;;;;;;;;;;-2.50;96.50;212.10;228463.00;;;;3;82527190;82527565;-62
2022/04/04 03:11:23;;;;;;;;;;;-2.60;98.00;212.10;228463.00;;;;3;78026713;82527621;-59
2022/04/04 03:15:46;;;;;;;;;;;-2.70;98.50;212.10;228463.00;;;;3;75024759;78027729;-55
2022/04/04 03:20:25;;;;;;;;;;;-2.80;98.90;212.10;228463.00;;;;3;75025462;84026533;-57
2022/04/04 03:24:49;;;;;;;;;;;-2.80;98.70;212.10;228463.00;;;;3;82527380;82528136;-56
2022/04/04 03:29:15;;;;;;;;;;;-2.80;98.70;212.10;228463.00;;;;3;78027457;82528549;-62
2022/04/04 03:33:35;;;;;;;;;;;-2.80;98.40;212.10;228463.00;;;;3;75026649;78028298;-59
2022/04/04 03:37:55;;;;;;;;;;;-2.80;99.10;212.10;228463.00;;;;3;75027017;82527670;-57
2022/04/04 03:42:19;;;;;;;;;;;-2.70;98.40;212.10;228463.00;;;;3;82526605;82527391;-55
2022/04/04 03:47:11;;;;;;;;;;;-2.70;97.80;212.10;228463.00;;;;3;78028267;82528719;-54
2022/04/04 03:51:49;;;;;;;;;;;-2.60;97.90;212.10;228463.00;;;;3;75025537;78027707;-56
2022/04/04 03:56:08;;;;;;;;;;;-2.50;97.40;212.10;228463.00;;;;3;75024699;82528028;-57
2022/04/04 04:00:35;;;;;;;;;;;-2.50;97.70;212.10;228463.00;;;;3;84028270;84029127;-54
2022/04/04 04:05:02;;;;;;;;;;;-2.40;98.10;212.10;228463.00;;;;3;78024802;82528980;-56
2022/04/04 04:09:22;;;;;;;;;;;-2.30;97.50;212.10;228463.00;;;;3;75025334;78026153;-57
2022/04/04 04:13:41;;;;;;;;;;;-2.20;96.70;212.10;228463.00;;;;3;75024600;82527059;-60
2022/04/04 04:18:06;;;;;;;;;;;-2.00;96.10;212.10;228463.00;;;;3;82525985;82527845;-60
2022/04/04 04:22:32;;;;;;;;;;;-1.80;95.70;212.10;228463.00;;;;3;78028139;82528181;-61
2022/04/04 04:31:37;;;;;;;;;;;-1.50;94.80;212.10;228463.00;;;;3;75026517;82527699;-60
2022/04/04 04:36:01;;;;;;;;;;;-1.40;94.10;212.10;228463.00;;;;3;82527552;82527567;-61
2022/04/04 04:40:47;;;;;;;;;;;-1.20;94.00;212.10;228463.00;;;;3;78030172;82527420;-60
2022/04/04 04:45:08;;;;;;;;;;;-1.20;93.90;212.10;228463.00;;;;3;75024613;78025833;-60
2022/04/04 04:49:29;;;;;;;;;;;-1.00;93.10;212.10;228463.00;;;;3;75026021;84027595;-61
2022/04/04 04:53:53;;;;;;;;;;;-1.00;92.80;212.10;228463.00;;;;3;82527389;82528055;-61
2022/04/04 04:58:20;;;;;;;;;;;-0.70;93.60;212.10;228463.00;;;;3;78027827;82526687;-63
2022/04/04 05:07:42;;;;;;;;;;;-0.20;92.30;212.10;228463.00;;;;3;75026599;82527106;-60
2022/04/04 05:12:06;;;;;;;;;;;-0.30;91.90;212.10;228463.00;;;;3;82526986;82527793;-62
2022/04/04 05:16:53;;;;;;;;;;;-0.20;92.00;212.10;228463.00;;;;3;78025993;82529580;-61
2022/04/04 05:21:56;;;;;;;;;;;-0.10;93.30;212.10;228463.00;;;;3;75024590;78026332;-62
2022/04/04 05:26:15;;;;;;;;;;;0.00;92.80;212.10;228463.00;;;;3;75024646;82527898;-61
2022/04/04 05:30:41;;;;;;;;;;;0.00;92.00;212.10;228463.00;;;;3;84027603;84028977;-62
2022/04/04 05:35:08;;;;;;;;;;;0.00;91.40;212.10;228463.00;;;;3;78027932;82528878;-61
2022/04/04 05:39:28;;;;;;;;;;;0.10;92.30;212.10;228463.00;;;;3;75025576;78027592;-61
2022/04/04 05:43:48;;;;;;;;;;;0.40;90.90;212.10;228463.00;;;;3;75025528;82526961;-61
2022/04/04 05:48:11;;;;;;;;;;;0.70;90.60;212.10;228463.00;;;;3;82527326;82529683;-60
2022/04/04 05:53:03;;;;;;;;;;;0.90;87.70;212.10;228463.00;;;;3;78027371;82527375;-60
2022/04/04 05:57:22;;;;;;;;;;;1.00;84.40;212.10;228463.00;;;;3;75026817;78026796;-61
2022/04/04 06:01:41;;;;;;;;;;;1.20;83.40;212.10;228463.00;;;;3;75025578;82527792;-57
2022/04/04 06:06:05;;;;;;;;;;;1.50;81.80;212.10;228463.00;;;;3;82528690;82529458;-58
2022/04/04 06:10:32;;;;;;;;;;;1.40;81.50;212.10;228463.00;;;;3;78027659;82528259;-60
2022/04/04 06:14:53;;;;;;;;;;;1.50;79.80;212.10;228463.00;;;;3;75026801;78026902;-60
2022/04/04 06:19:14;;;;;;;;;;;1.60;81.40;212.10;228463.00;;;;3;75024729;84029756;-60
2022/04/04 06:23:38;;;;;;;;;;;1.80;75.00;212.10;228463.00;;;;3;82526904;82527694;-60
2022/04/04 06:28:05;;;;;;;;;;;2.00;79.80;212.10;228463.00;;;;3;78025805;82530063;-61
2022/04/04 06:32:25;;;;;;;;;;;2.00;72.80;212.10;228463.00;;;;3;75025929;78028226;-62
2022/04/04 06:36:44;;;;;;;;;;;2.20;79.30;212.10;228463.00;;;;3;75025814;82528223;-59
2022/04/04 06:41:33;;;;;;;;;;;2.30;72.10;212.10;228463.00;;;;3;82526961;82528432;-62
2022/04/04 06:46:00;;;;;;;;;;;2.30;71.00;212.10;228463.00;;;;3;78026075;82526821;-60
2022/04/04 06:50:19;;;;;;;;;;;2.40;68.80;212.10;228463.00;;;;3;75024717;78028656;-57
2022/04/04 06:54:38;;;;;;;;;;;2.40;66.60;212.10;228463.00;;;;3;75024760;82527696;-57
2022/04/04 06:59:23;;;;;;;;;;;2.30;68.70;212.10;228463.00;;;;3;84026660;84028878;-57
2022/04/04 07:04:09;;;;;;;;;;;2.40;66.60;212.10;228463.00;;;;3;78027023;82527917;-57
2022/04/04 07:08:29;;;;;;;;;;;2.20;65.60;212.10;228463.00;;;;3;75026806;78026884;-57
2022/04/04 07:12:48;;;;;;;;;;;2.20;64.40;212.10;228463.00;;;;3;75025036;82527730;-56
2022/04/04 07:17:12;;;;;;;;;;;2.30;63.60;212.10;228463.00;;;;3;82528653;82530126;-58
2022/04/04 07:22:04;;;;;;;;;;;2.20;63.50;212.10;228463.00;;;;3;78026283;82527277;-56
2022/04/04 07:26:42;;;;;;;;;;;2.20;70.50;212.10;228463.00;;;;3;75025889;78027878;-57
2022/04/04 07:31:06;;;;;;;;;;;2.10;64.60;212.10;228463.00;;;;3;75026763;82527680;-54
2022/04/04 07:35:31;;;;;;;;;;;2.70;66.40;212.10;228463.00;;;;3;82527586;82528956;-54
2022/04/04 07:39:58;;;;;;;;;;;3.10;67.20;212.10;228463.00;;;;3;78026711;82530804;-55
2022/04/04 07:44:18;;;;;;;;;;;3.30;60.60;212.10;228463.00;;;;3;75024085;78027003;-54
2022/04/04 07:48:58;;;;;;;;;;;3.00;59.90;212.10;228463.00;;;;3;75024447;84026086;-51
2022/04/04 07:53:22;;;;;;;;;;;3.20;60.30;212.10;228463.00;;;;3;82528187;82528855;-55
2022/04/04 07:57:48;;;;;;;;;;;3.10;65.70;212.10;228463.00;;;;3;78027552;82528421;-54
2022/04/04 08:02:08;;;;;;;;;;;3.20;60.30;212.10;228463.00;;;;3;75025199;78027677;-54
2022/04/04 08:06:52;;;;;;;;;;;3.50;69.00;212.10;228463.00;;;;3;75025176;82527478;-51
2022/04/04 08:11:15;;;;;;;;;;;3.60;67.20;212.10;228463.00;;;;3;82527604;82528337;-51
2022/04/04 08:15:42;;;;;;;;;;;3.40;59.70;212.10;228463.00;;;;3;78028405;82526479;-51
2022/04/04 08:20:02;;;;;;;;;;;3.60;59.00;212.10;228463.00;;;;3;75024759;78025825;-56
2022/04/04 08:24:22;;;;;;;;;;;3.40;57.30;212.10;228463.00;;;;3;75027847;82528196;-56
2022/04/04 08:34:00;;;;;;;;;;;3.30;58.70;212.10;228463.00;;;;3;78026936;82528106;-54
2022/04/04 08:38:20;;;;;;;;;;;3.50;58.40;212.10;228463.00;;;;3;75027254;78027643;-55
2022/04/04 08:42:39;;;;;;;;;;;3.30;63.30;212.10;228463.00;;;;3;75025955;82528282;-54
2022/04/04 08:47:29;;;;;;;;;;;3.60;60.90;212.10;228463.00;;;;3;82526465;82527861;-54
2022/04/04 08:51:58;;;;;;;;;;;3.70;62.70;212.10;228463.00;;;;3;78027679;82528029;-55
2022/04/04 08:56:18;;;;;;;;;;;3.40;66.00;212.10;228463.00;;;;3;75025062;78027473;-58
2022/04/04 09:01:50;;;;;;;;;;;3.10;67.60;212.10;228463.00;;;;3;72024292;75025700;-51
2022/04/04 09:06:18;;;;;;;;;;;3.30;66.90;212.10;228463.00;;;;3;82527104;82528729;-53
2022/04/04 09:10:56;;;;;;;;;;;3.00;74.40;212.10;228463.00;;;;3;78027517;82527725;-52
2022/04/04 09:15:17;;;;;;;;;;;3.10;75.10;212.10;228463.00;;;;3;75025059;78027730;-52
2022/04/04 09:19:48;;;;;;;;;;;3.50;70.90;212.10;228463.00;;;;3;75023707;84028461;-52
2022/04/04 09:24:43;;;;;;;;;;;3.30;74.90;212.10;228463.00;;;;3;82529328;82529367;-52
2022/04/04 09:29:28;;;;;;;;;;;3.30;75.20;212.10;228463.00;;;;3;78028594;82528797;-53
2022/04/04 09:34:13;;;;;;;;;;;3.50;79.40;212.10;228463.00;;;;3;75025407;78029473;-54
2022/04/04 09:38:35;;;;;;;;;;;3.30;77.70;212.10;228463.00;;;;3;75023150;82528761;-54
2022/04/04 09:48:28;;;;;;;;;;;3.50;79.40;212.10;228463.00;;;;3;78026910;82527897;-53
2022/04/04 09:52:51;;;;;;;;;;;3.50;79.90;212.10;228463.00;;;;3;75025844;78030110;-56
2022/04/04 09:57:11;;;;;;;;;;;3.50;82.80;212.10;228463.00;;;;3;75026700;82527057;-56
2022/04/04 10:01:38;;;;;;;;;;;3.80;81.40;212.10;228463.00;;;;3;84027385;84029601;-57
2022/04/04 10:06:07;;;;;;;;;;;3.80;80.50;212.10;228463.00;;;;3;78027484;82526650;-54
2022/04/04 10:10:30;;;;;;;;;;;3.90;80.70;212.10;228463.00;;;;3;75026359;78024791;-52
2022/04/04 10:14:50;;;;;;;;;;;4.20;81.80;212.10;228463.00;;;;3;75024315;82528235;-55
2022/04/04 10:19:51;;;;;;;;;;;4.10;80.00;212.10;228463.00;;;;3;82527490;82527727;-52
2022/04/04 10:24:20;;;;;;;;;;;3.90;83.10;212.10;228463.00;;;;3;78027303;82529133;-54
2022/04/04 10:28:57;;;;;;;;;;;4.10;81.40;212.10;228463.00;;;;3;75024904;78028618;-55
2022/04/04 10:33:35;;;;;;;;;;;4.40;79.60;212.10;228463.00;;;;3;75024117;82529136;-50
2022/04/04 10:38:06;;;;;;;;;;;4.20;79.50;212.10;228463.00;;;;3;82526117;82527877;-56
2022/04/04 10:43:12;;;;;;;;;;;4.10;74.60;212.10;228463.00;;;;3;78028701;82530524;-55
2022/04/04 10:47:46;;;;;;;;;;;4.20;80.20;212.10;228463.00;;;;3;75026254;78029003;-55
2022/04/04 10:52:12;;;;;;;;;;;4.10;72.60;212.10;228463.00;;;;3;75029336;84027132;-56
2022/04/04 10:56:47;;;;;;;;;;;4.20;74.90;212.10;228463.00;;;;3;82528305;82528657;-54
2022/04/04 11:01:48;;;;;;;;;;;4.00;71.50;212.10;228463.00;;;;3;78029140;82527864;-55
2022/04/04 11:11:21;;;;;;;;;;;4.00;73.30;212.10;228463.00;;;;3;75026743;82527972;-55
2022/04/04 11:16:22;;;;;;;;;;;3.80;73.50;212.10;228463.00;;;;3;82529864;82530201;-52
2022/04/04 11:20:54;;;;;;;;;;;3.90;73.60;212.10;228463.00;;;;3;78027840;82529153;-57
2022/04/04 11:25:16;;;;;;;;;;;4.10;74.40;212.10;228463.00;;;;3;75024987;78027824;-56
2022/04/04 11:29:38;;;;;;;;;;;4.30;74.50;212.10;228463.00;;;;3;75023802;82528071;-54
2022/04/04 11:34:12;;;;;;;;;;;4.20;69.90;212.10;228463.00;;;;3;84026442;84027509;-53
2022/04/04 11:38:40;;;;;;;;;;;4.30;70.70;212.10;228463.00;;;;3;78027880;82527262;-57
2022/04/04 11:43:07;;;;;;;;;;;4.40;73.70;212.10;228463.00;;;;3;75025960;78026281;-55
2022/04/04 11:47:30;;;;;;;;;;;4.60;71.10;212.10;228463.00;;;;3;75025418;82527486;-54
2022/04/04 11:52:19;;;;;;;;;;;4.80;71.10;212.10;228463.00;;;;3;82527605;82527852;-54
2022/04/04 11:56:48;;;;;;;;;;;4.60;69.60;212.10;228463.00;;;;3;78026966;82529530;-53
2022/04/04 12:01:09;;;;;;;;;;;4.60;71.30;212.10;228463.00;;;;3;75026766;78027073;-55
2022/04/04 12:05:55;;;;;;;;;;;4.70;75.20;212.10;228463.00;;;;3;75024689;82526913;-56
2022/04/04 12:10:38;;;;;;;;;;;4.80;74.50;212.10;228463.00;;;;3;82526947;82527241;-53
2022/04/04 12:19:52;;;;;;;;;;;4.60;70.40;212.10;228463.00;;;;3;75024303;78029017;-54
2022/04/04 12:25:13;;;;;;;;;;;4.70;70.10;212.10;228463.00;;;;3;75024410;84029196;-55
2022/04/04 12:29:12;;;;;;;;;;;4.70;71.10;212.10;228463.00;;;;3;82527599;82529286;-54
2022/04/04 12:33:39;;;;;;;;;;;5.00;73.80;212.10;228463.00;;;;3;78026771;82529092;-54
2022/04/04 12:38:21;;;;;;;;;;;5.00;69.90;212.10;228463.00;;;;3;75027242;78026743;-57
2022/04/04 12:42:40;;;;;;;;;;;5.20;70.70;212.10;228463.00;;;;3;75027989;82532174;-53
2022/04/04 12:52:05;;;;;;;;;;;5.20;68.70;212.10;228463.00;;;;3;78027816;82528188;-53
2022/04/04 12:56:31;;;;;;;;;;;5.00;65.10;212.10;228463.00;;;;3;75026032;78027448;-54
2022/04/04 13:00:51;;;;;;;;;;;4.90;72.50;212.10;228463.00;;;;3;75024210;82526869;-54
2022/04/04 13:05:49;;;;;;;;;;;4.90;67.30;212.10;228463.00;;;;3;84027206;84027796;-57
2022/04/04 13:10:16;;;;;;;;;;;4.70;69.70;212.10;228463.00;;;;3;78028647;82527065;-55
2022/04/04 13:14:47;;;;;;;;;;;5.00;73.30;212.10;228463.00;;;;3;75026561;78026253;-56
2022/04/04 13:19:07;;;;;;;;;;;5.20;68.90;212.10;228463.00;;;;3;75023893;82528579;-54
2022/04/04 13:23:31;;;;;;;;;;;5.00;67.30;212.10;228463.00;;;;3;82526942;82527429;-56
2022/04/04 13:27:57;;;;;;;;;;;5.10;67.60;212.10;228463.00;;;;3;78026023;82527639;-53
2022/04/04 13:32:16;;;;;;;;;;;5.50;67.20;212.10;228463.00;;;;3;75023408;78027950;-54
2022/04/04 13:36:37;;;;;;;;;;;5.70;70.10;212.10;228463.00;;;;3;75026170;82528514;-52
2022/04/04 13:41:00;;;;;;;;;;;5.80;65.40;212.10;228463.00;;;;3;82527715;82527753;-56
2022/04/04 13:45:28;;;;;;;;;;;5.60;68.30;212.10;228463.00;;;;3;78025606;82529393;-55
2022/04/04 13:49:49;;;;;;;;;;;5.90;68.20;212.10;228463.00;;;;3;75025195;78026886;-52
2022/04/04 13:54:10;;;;;;;;;;;5.80;70.20;212.10;228463.00;;;;3;75025858;84028815;-56
2022/04/04 13:58:34;;;;;;;;;;;5.40;71.10;212.10;228463.00;;;;3;82528131;82528172;-52
2022/04/04 14:03:01;;;;;;;;;;;5.50;73.40;212.10;228463.00;;;;3;78026110;82528791;-54
2022/04/04 14:07:21;;;;;;;;;;;5.60;74.80;212.10;228463.00;;;;3;75025052;78028438;-55
2022/04/04 14:11:41;;;;;;;;;;;5.60;76.70;212.10;228463.00;;;;3;75024032;82527123;-53
2022/04/04 14:16:05;;;;;;;;;;;5.30;78.90;212.10;228463.00;;;;3;82527155;82528692;-54
2022/04/04 14:20:32;;;;;;;;;;;4.90;79.40;212.10;228463.00;;;;3;78024965;82528698;-54
2022/04/04 14:24:54;;;;;;;;;;;4.60;80.40;212.10;228463.00;;;;3;75025276;78025185;-52
2022/04/04 14:29:14;;;;;;;;;;;4.50;82.10;212.10;228463.00;;;;3;75026029;82526354;-53
2022/04/04 14:33:40;;;;;;;;;;;4.50;82.50;212.10;228463.00;;;;3;84027084;84028360;-55
2022/04/04 14:38:07;;;;;;;;;;;4.50;82.50;212.10;228463.00;;;;3;78026148;82529268;-54
2022/04/04 14:42:27;;;;;;;;;;;4.30;83.30;212.10;228463.00;;;;3;75026587;78025995;-54
2022/04/04 14:46:46;;;;;;;;;;;4.20;81.80;212.10;228463.00;;;;3;75024837;82529218;-50
2022/04/04 14:51:13;;;;;;;;;;;4.20;85.90;212.10;228463.00;;;;3;82526978;82527534;-54
2022/04/04 14:55:39;;;;;;;;;;;4.50;86.20;212.10;228463.00;;;;3;78025935;82528080;-53
2022/04/04 15:00:00;;;;;;;;;;;4.70;87.70;212.10;228463.00;;;;3;75026049;78027925;-53
2022/04/04 15:04:19;;;;;;;;;;;4.50;81.60;212.10;228463.00;;;;3;75025667;82527134;-57
2022/04/04 15:08:43;;;;;;;;;;;4.20;84.80;212.10;228463.00;;;;3;82528267;82529367;-58
2022/04/04 15:13:10;;;;;;;;;;;4.00;90.20;212.10;228463.00;;;;3;78028042;82532553;-58
2022/04/04 15:17:31;;;;;;;;;;;3.80;91.50;212.10;228463.00;;;;3;75028389;78027858;-59
2022/04/04 15:21:53;;;;;;;;;;;3.60;92.80;212.10;228463.00;;;;3;75024997;84028385;-57
2022/04/04 15:26:18;;;;;;;;;;;3.50;91.80;212.10;228463.00;;;;3;82528116;82529148;-56
2022/04/04 15:30:45;;;;;;;;;;;3.40;92.00;212.10;228463.00;;;;3;78030561;82527583;-56
2022/04/04 15:35:04;;;;;;;;;;;3.20;92.10;212.10;228463.00;;;;3;75026194;78028195;-58
2022/04/04 15:39:29;;;;;;;;;;;3.10;94.30;212.10;228463.00;;;;3;75025759;82528110;-59
2022/04/04 15:43:54;;;;;;;;;;;3.00;94.90;212.10;228463.00;;;;3;82528203;82529038;-59
2022/04/04 15:48:21;;;;;;;;;;;2.80;94.50;212.10;228463.00;;;;3;78028124;82528442;-60
2022/04/04 15:52:41;;;;;;;;;;;2.60;95.00;212.10;228463.00;;;;3;75025180;78027667;-59
2022/04/04 15:57:01;;;;;;;;;;;2.40;95.10;212.10;228463.00;;;;3;75025693;82525439;-57
2022/04/04 16:01:27;;;;;;;;;;;2.30;96.50;212.10;228463.00;;;;3;84027316;84027727;-59
2022/04/04 16:05:54;;;;;;;;;;;2.20;96.80;212.10;228463.00;;;;3;78028355;82529340;-58
2022/04/04 16:10:16;;;;;;;;;;;2.10;97.10;212.10;228463.00;;;;3;75025699;78026357;-59
2022/04/04 16:14:36;;;;;;;;;;;2.00;97.70;212.10;228463.00;;;;3;75025250;82528949;-59
2022/04/04 16:19:00;;;;;;;;;;;1.90;97.80;212.10;228463.00;;;;3;82527827;82527887;-59
2022/04/04 16:23:27;;;;;;;;;;;1.90;98.40;212.10;228463.00;;;;3;78028771;82526427;-59
2022/04/04 16:27:48;;;;;;;;;;;1.70;97.70;212.10;228463.00;;;;3;75026507;78026764;-56
2022/04/04 16:32:07;;;;;;;;;;;1.60;98.40;212.10;228463.00;;;;3;75024504;82528508;-58
2022/04/04 16:36:31;;;;;;;;;;;1.40;99.00;212.10;228463.00;;;;3;82526596;82528223;-57
2022/04/04 16:40:58;;;;;;;;;;;1.30;99.20;212.10;228463.00;;;;3;78027034;82526677;-57
2022/04/04 16:45:19;;;;;;;;;;;1.20;99.90;212.10;228463.00;;;;3;75026690;78030494;-58
2022/04/04 16:49:40;;;;;;;;;;;1.00;99.90;212.10;228463.00;;;;3;75026930;84030773;-59
2022/04/04 16:54:06;;;;;;;;;;;0.90;99.90;212.10;228463.00;;;;3;82527324;82530487;-58
2022/04/04 16:58:32;;;;;;;;;;;0.80;99.90;212.10;228463.00;;;;3;78029869;82529225;-59
2022/04/04 17:02:52;;;;;;;;;;;0.70;99.90;212.10;228463.00;;;;3;75025463;78030631;-58
2022/04/04 17:07:11;;;;;;;;;;;0.70;99.90;212.10;228463.00;;;;3;75026482;82528903;-54
2022/04/04 17:11:35;;;;;;;;;;;0.70;99.90;212.10;228463.00;;;;3;82529230;82531456;-59
2022/04/04 17:16:01;;;;;;;;;;;0.60;99.90;212.10;228463.00;;;;3;78027822;82530289;-59
2022/04/04 17:20:20;;;;;;;;;;;0.60;99.90;212.10;228463.00;;;;3;75026573;78027083;-56
2022/04/04 17:24:40;;;;;;;;;;;0.60;99.90;212.10;228463.00;;;;3;75026208;82531378;-57
2022/04/04 17:29:06;;;;;;;;;;;0.50;99.90;212.10;228463.00;;;;3;84029469;84030113;-56
2022/04/04 17:33:36;;;;;;;;;;;0.60;99.90;212.10;228463.00;;;;3;78029965;82531362;-57
2022/04/04 17:37:55;;;;;;;;;;;0.60;99.90;212.10;228463.00;;;;3;75028066;78030001;-57
2022/04/04 17:42:14;;;;;;;;;;;0.70;99.90;212.10;228463.00;;;;3;75025139;82527544;-56
2022/04/04 17:46:41;;;;;;;;;;;0.60;99.90;212.10;228463.00;;;;3;82528859;82529907;-57
2022/04/04 17:51:08;;;;;;;;;;;0.60;99.90;212.10;228463.00;;;;3;78030081;82527247;-60
2022/04/04 17:55:28;;;;;;;;;;;0.80;99.90;212.10;228463.00;;;;3;75026275;78025815;-58
2022/04/04 17:59:47;;;;;;;;;;;0.80;99.90;212.10;228463.00;;;;3;75024514;82529129;-55
2022/04/04 18:04:12;;;;;;;;;;;0.90;99.90;212.10;228463.00;;;;3;82527916;82527960;-56
2022/04/04 18:08:39;;;;;;;;;;;0.80;99.90;212.10;228463.00;;;;3;78026538;82529241;-58
2022/04/04 18:12:59;;;;;;;;;;;0.80;99.90;212.10;228463.00;;;;3;75024521;78028776;-57
2022/04/04 18:17:20;;;;;;;;;;;0.70;99.90;212.10;228463.00;;;;3;75026138;84029444;-55
2022/04/04 18:21:44;;;;;;;;;;;0.50;99.90;212.10;228463.00;;;;3;82527808;82528538;-56
2022/04/04 18:26:11;;;;;;;;;;;0.40;99.90;212.10;228463.00;;;;3;78029641;82526740;-57
2022/04/04 18:30:30;;;;;;;;;;;0.30;99.90;212.10;228463.00;;;;3;75026116;78027689;-57
2022/04/04 18:34:50;;;;;;;;;;;0.10;99.90;212.10;228463.00;;;;3;75025739;82527655;-56
2022/04/04 18:39:14;;;;;;;;;;;0.00;99.90;212.10;228463.00;;;;3;82528964;82530165;-56
2022/04/04 18:43:40;;;;;;;;;;;-0.10;99.90;212.10;228463.00;;;;3;78026522;82527702;-61
2022/04/04 18:47:59;;;;;;;;;;;-0.10;99.90;212.10;228463.00;;;;3;75023950;78027294;-60
2022/04/04 18:52:18;;;;;;;;;;;-0.10;99.90;212.10;228463.00;;;;3;75026465;82527555;-63
2022/04/04 18:56:45;;;;;;;;;;;-0.10;99.90;212.10;228463.00;;;;3;84027553;84031467;-62
2022/04/04 19:01:12;;;;;;;;;;;0.00;99.90;212.10;228463.00;;;;3;78026202;82528231;-62
2022/04/04 19:05:31;;;;;;;;;;;0.00;99.90;212.10;228463.00;;;;3;75024710;78028767;-61
2022/04/04 19:09:51;;;;;;;;;;;0.10;99.90;212.10;228463.00;;;;3;75024797;82527058;-59
2022/04/04 19:14:14;;;;;;;;;;;0.30;99.90;212.10;228463.00;;;;3;82527579;82527732;-60
2022/04/04 19:18:41;;;;;;;;;;;0.40;99.90;212.10;228463.00;;;;3;78027479;82526837;-61
2022/04/04 19:23:00;;;;;;;;;;;0.40;99.90;212.10;228463.00;;;;3;75024096;78026668;-61
2022/04/04 19:27:19;;;;;;;;;;;0.50;99.90;212.10;228463.00;;;;3;75025150;82527150;-61
2022/04/04 19:31:44;;;;;;;;;;;0.40;99.90;212.10;228463.00;;;;3;82527177;82528122;-60
2022/04/04 19:36:12;;;;;;;;;;;0.50;99.90;212.10;228463.00;;;;3;78026624;82529756;-61
2022/04/04 19:40:32;;;;;;;;;;;0.50;99.90;212.10;228463.00;;;;3;75026895;78026672;-60
2022/04/04 19:44:53;;;;;;;;;;;0.60;99.90;212.10;228463.00;;;;3;75024867;84028040;-61
2022/04/04 19:49:17;;;;;;;;;;;0.60;99.90;212.10;228463.00;;;;3;82527182;82528927;-62
2022/04/04 19:53:44;;;;;;;;;;;0.60;99.90;212.10;228463.00;;;;3;78027242;82528951;-62
2022/04/04 19:58:03;;;;;;;;;;;0.60;99.90;212.10;228463.00;;;;3;75025694;78025962;-62
2022/04/04 20:02:22;;;;;;;;;;;0.60;99.90;212.10;228463.00;;;;3;75030524;82527120;-61
2022/04/04 20:06:47;;;;;;;;;;;0.70;99.90;212.10;228463.00;;;;3;82527850;82528240;-61
2022/04/04 20:11:13;;;;;;;;;;;0.70;99.90;212.10;228463.00;;;;3;78027419;82527659;-61
2022/04/04 20:15:33;;;;;;;;;;;0.60;99.90;212.10;228463.00;;;;3;75026035;78028175;-61
2022/04/04 20:19:53;;;;;;;;;;;0.50;99.90;212.10;228463.00;;;;3;75025027;82528020;-61
2022/04/04 20:24:19;;;;;;;;;;;0.50;99.90;212.10;228463.00;;;;3;84027374;84028782;-59
2022/04/04 20:28:46;;;;;;;;;;;0.40;99.90;212.10;228463.00;;;;3;78027759;82529298;-60
2022/04/04 20:33:07;;;;;;;;;;;0.40;99.90;212.10;228463.00;;;;3;75025276;78027312;-60
2022/04/04 20:37:27;;;;;;;;;;;0.50;99.90;212.10;228463.00;;;;3;75025478;82529233;-61
2022/04/04 20:41:50;;;;;;;;;;;0.50;99.90;212.10;228463.00;;;;3;82528834;82528836;-62
2022/04/04 20:46:17;;;;;;;;;;;0.50;99.90;212.10;228463.00;;;;3;78028109;82529098;-61
2022/04/04 20:50:38;;;;;;;;;;;0.50;99.90;212.10;228463.00;;;;3;75025770;78029034;-61
2022/04/04 20:54:57;;;;;;;;;;;0.50;99.90;212.10;228463.00;;;;3;75025606;82525961;-61
2022/04/04 20:59:21;;;;;;;;;;;0.50;99.90;212.10;228463.00;;;;3;82526291;82528250;-61
2022/04/04 21:03:48;;;;;;;;;;;0.40;99.90;212.10;228463.00;;;;3;78027013;82526633;-61
2022/04/04 21:08:10;;;;;;;;;;;0.40;99.90;212.10;228463.00;;;;3;75025656;78026659;-61
2022/04/04 21:12:32;;;;;;;;;;;0.40;99.90;212.10;228463.00;;;;3;75025484;84027140;-61
2022/04/04 21:16:57;;;;;;;;;;;0.40;99.90;212.10;228463.00;;;;3;82527517;82527585;-61